Time;durP1;ratioP1;P1;durP2;ratioP2;P2;SDS_P1;SDS_P2;PMS_P1;PMS_P2;Temp;Humidity;BMP_temperature;BMP_pressure;BME280_temperature;BME280_humidity;BME280_pressure;Samples;Min_cycle;Max_cycle;Signal;HPM_P1;HPM_P2
2023/01/24 00:05:12;;;;;;;14.68;11.23;;;2.80;99.90;;;;;;4870880;29;20063;-93
2023/01/24 00:10:39;;;;;;;;;;;;;;;;;;;;;
2023/01/24 00:13:56;;;;;;;;;;;;;;;;;;;;;
2023/01/24 00:21:03;;;;;;;;;;;;;;;;;;;;;
2023/01/24 00:27:35;;;;;;;;;;;;;;;;;;;;;
2023/01/24 00:30:41;;;;;;;16.10;12.63;;;1.60;99.90;;;;;;4971378;28;20047;-90
2023/01/24 00:34:04;;;;;;;17.52;12.57;;;2.60;99.90;;;;;;4957749;28;20054;-92
2023/01/24 00:43:30;;;;;;;;;;;;;;;;;;;;;
2023/01/24 00:54:27;;;;;;;16.88;13.23;;;2.60;99.90;;;;;;4997030;22;20046;-91
2023/01/24 00:57:33;;;;;;;16.25;14.38;;;2.70;99.90;;;;;;4960378;28;20179;-92
2023/01/24 01:04:36;;;;;;;18.20;13.52;;;1.60;99.90;;;;;;4961288;28;20219;-93
2023/01/24 01:07:46;;;;;;;20.58;13.30;;;2.50;99.90;;;;;;4909514;29;20052;-91
2023/01/24 01:14:32;;;;;;;18.75;13.13;;;2.60;99.90;;;;;;4912488;29;20048;-91
2023/01/24 01:29:08;;;;;;;17.65;13.73;;;1.70;99.90;;;;;;4841560;29;20056;-91
2023/01/24 01:32:33;;;;;;;;;;;;;;;;;;;;;
2023/01/24 03:35:17;;;;;;;23.85;16.10;;;1.60;99.90;;;;;;4909572;29;20143;-91
2023/01/24 03:41:54;;;;;;;19.42;15.05;;;2.70;99.90;;;;;;4988245;28;20682;-92
2023/01/24 03:45:16;;;;;;;18.85;14.75;;;3.40;99.90;;;;;;4981156;28;20121;-92
2023/01/24 03:48:55;;;;;;;;;;;;;;;;;;;;;
2023/01/24 03:55:43;;;;;;;;;;;;;;;;;;;;;
2023/01/24 04:18:21;;;;;;;14.00;11.70;;;2.60;99.90;;;;;;5076309;23;20065;-92
2023/01/24 04:21:57;;;;;;;;;;;;;;;;;;;;;
2023/01/24 04:25:16;;;;;;;18.63;14.15;;;2.80;99.90;;;;;;4971275;28;20128;-91
2023/01/24 04:28:22;;;;;;;17.60;13.27;;;1.40;99.90;;;;;;4951784;28;20138;-89
2023/01/24 04:31:15;;;;;;;15.05;12.10;;;2.90;99.90;;;;;;4955822;28;20074;-90
2023/01/24 04:46:11;;;;;;;15.65;12.65;;;2.50;99.90;;;;;;4591803;22;20541;-90
2023/01/24 04:49:22;;;;;;;;;;;;;;;;;;;;;
2023/01/24 04:56:19;;;;;;;;;;;;;;;;;;;;;
2023/01/24 05:03:19;;;;;;;;;;;;;;;;;;;;;
2023/01/24 05:06:36;;;;;;;14.27;11.95;;;1.40;99.90;;;;;;4927237;29;20056;-91
2023/01/24 05:10:04;;;;;;;18.63;13.75;;;3.70;99.90;;;;;;4930445;29;20507;-90
2023/01/24 05:43:00;;;;;;;17.83;14.80;;;4.10;99.90;;;;;;4926157;29;20079;-93
2023/01/24 06:43:17;;;;;;;;;;;2.30;99.90;;;;;;4992688;23;20607;-85
2023/01/24 06:45:42;;;;;;;22.17;15.77;;;2.30;99.90;;;;;;4951148;28;19922;-89
2023/01/24 06:48:11;;;;;;;21.10;16.10;;;1.90;99.90;;;;;;4997617;28;20069;-89
2023/01/24 07:13:20;;;;;;;18.60;14.75;;;2.40;99.90;;;;;;4973954;28;20074;-87
2023/01/24 07:19:41;;;;;;;20.38;15.27;;;2.20;99.90;;;;;;4986581;26;20057;-91
2023/01/24 07:22:16;;;;;;;17.90;14.30;;;1.70;99.90;;;;;;4962484;28;20097;-94
2023/01/24 07:25:30;;;;;;;;;;;;;;;;;;;;;
2023/01/24 07:28:11;;;;;;;18.20;14.95;;;2.40;99.90;;;;;;4995998;28;20055;-92
2023/01/24 07:30:46;;;;;;;19.40;13.38;;;3.00;99.90;;;;;;4952324;28;20090;-94
2023/01/24 07:33:25;;;;;;;19.13;14.02;;;2.40;99.90;;;;;;4972057;28;20548;-92
2023/01/24 07:36:04;;;;;;;19.25;14.02;;;2.40;99.90;;;;;;4948943;28;20055;-92
2023/01/24 07:38:40;;;;;;;17.95;13.55;;;2.90;99.90;;;;;;4941983;28;20055;-92
2023/01/24 08:05:53;;;;;;;20.38;13.93;;;2.20;99.90;;;;;;4993912;28;20129;-93
2023/01/24 08:08:42;;;;;;;22.88;14.25;;;2.80;99.90;;;;;;4960267;28;20611;-92
2023/01/24 08:11:15;;;;;;;17.65;13.82;;;;;;;;;;4989350;28;20502;-92
2023/01/24 08:13:54;;;;;;;16.02;13.43;;;4.10;99.90;;;;;;4975647;28;20039;-95
2023/01/24 08:16:23;;;;;;;18.95;13.52;;;6.40;99.90;;;;;;4951699;28;20105;-93
2023/01/24 08:19:18;;;;;;;16.45;13.45;;;4.00;99.90;;;;;;4956813;28;20499;-93
2023/01/24 08:21:47;;;;;;;18.48;13.82;;;;;;;;;;4974901;28;20403;-95
2023/01/24 08:24:22;;;;;;;16.05;12.75;;;2.20;99.90;;;;;;4965483;28;20047;-93
2023/01/24 08:26:54;;;;;;;17.15;12.93;;;0.80;99.90;;;;;;4974644;28;20085;-94
2023/01/24 16:47:59;;;;;;;19.40;13.95;;;2.90;99.90;;;;;;5278875;22;20057;-85
2023/01/24 17:38:41;;;;;;;16.35;13.23;;;1.60;99.90;;;;;;5044153;22;20059;-89
2023/01/24 17:41:23;;;;;;;16.85;14.02;;;2.00;99.90;;;;;;4991700;23;20078;-89
2023/01/24 17:44:14;;;;;;;19.10;13.05;;;0.20;99.90;;;;;;4997778;23;20626;-89
2023/01/24 17:47:03;;;;;;;;;;;;;;;;;;;;;
2023/01/24 17:53:07;;;;;;;16.40;13.07;;;1.90;99.90;;;;;;4979085;28;20097;-90
2023/01/24 17:55:34;;;;;;;18.80;14.57;;;1.80;99.90;;;;;;4974918;28;20077;-86
2023/01/24 17:58:00;;;;;;;23.02;16.42;;;1.90;99.90;;;;;;4987880;28;20140;-77
2023/01/24 18:26:55;;;;;;;20.17;15.60;;;1.60;99.90;;;;;;4987123;28;20511;-86
2023/01/24 19:22:34;;;;;;;35.13;24.63;;;1.40;99.90;;;;;;4929808;29;20163;-90
2023/01/24 19:25:41;;;;;;;;;;;;;;;;;;;;;
2023/01/24 19:41:12;;;;;;;19.85;16.95;;;3.10;99.90;;;;;;4873788;29;20048;-94
2023/01/24 19:49:17;;;;;;;19.65;16.02;;;1.50;99.90;;;;;;4906734;29;20079;-89
2023/01/24 19:52:09;;;;;;;20.10;14.98;;;-0.10;99.90;;;;;;4907528;29;20475;-91
2023/01/24 19:54:56;;;;;;;20.30;15.07;;;2.40;99.90;;;;;;4917810;29;20091;-91
2023/01/24 19:57:32;;;;;;;23.35;16.88;;;2.70;99.90;;;;;;4909629;29;20488;-92
2023/01/24 20:00:01;;;;;;;18.85;15.75;;;1.50;99.90;;;;;;4929223;29;20063;-92
2023/01/24 20:02:31;;;;;;;17.55;15.38;;;0.90;99.90;;;;;;4895062;29;20063;-92
2023/01/24 20:04:57;;;;;;;19.27;16.05;;;3.50;99.90;;;;;;4900784;29;20056;-94
2023/01/24 20:07:26;;;;;;;20.02;16.38;;;2.30;99.90;;;;;;4895862;29;20051;-90
2023/01/24 20:10:08;;;;;;;18.00;15.60;;;2.90;99.90;;;;;;4908677;29;20100;-91
2023/01/24 20:12:58;;;;;;;22.38;16.92;;;1.40;99.90;;;;;;4912188;29;20099;-93
2023/01/24 20:15:26;;;;;;;18.15;14.65;;;1.30;99.90;;;;;;4876342;29;20063;-91
2023/01/24 20:18:05;;;;;;;17.52;15.20;;;3.50;99.90;;;;;;4893020;29;20056;-92
2023/01/24 20:20:53;;;;;;;20.45;16.08;;;1.40;99.90;;;;;;4892994;29;20131;-90
2023/01/24 20:23:22;;;;;;;20.77;16.58;;;1.80;99.90;;;;;;4892028;29;20622;-92
2023/01/24 20:26:14;;;;;;;30.52;18.55;;;2.90;99.90;;;;;;4912001;29;20108;-91
2023/01/24 20:28:43;;;;;;;22.05;17.85;;;2.90;99.90;;;;;;4891259;29;20048;-90
2023/01/24 20:33:58;;;;;;;19.65;15.23;;;1.30;99.90;;;;;;5179033;23;20055;-92
2023/01/24 20:39:27;;;;;;;;;;;;;;;;;;;;;
2023/01/24 20:46:23;;;;;;;;;;;;;;;;;;;;;
2023/01/24 20:49:20;;;;;;;20.77;16.42;;;2.60;99.90;;;;;;4922764;29;20430;-90
2023/01/24 20:51:59;;;;;;;21.08;15.98;;;1.80;99.90;;;;;;4927502;29;20087;-89
2023/01/24 20:54:37;;;;;;;20.33;15.85;;;2.50;99.90;;;;;;4920867;29;20063;-89
2023/01/24 21:01:59;;;;;;;;;;;;;;;;;;;;;
2023/01/24 21:04:44;;;;;;;21.13;16.30;;;1.30;99.90;;;;;;4882130;29;20089;-89
2023/01/24 21:07:50;;;;;;;19.52;14.90;;;1.30;99.90;;;;;;4873273;29;20123;-88
2023/01/24 21:10:26;;;;;;;20.40;15.73;;;1.30;99.90;;;;;;4897095;29;20587;-85
2023/01/24 21:12:54;;;;;;;23.42;17.50;;;1.00;99.90;;;;;;4911633;29;20492;-87
2023/01/24 21:15:23;;;;;;;19.88;16.27;;;;;;;;;;4914913;29;20059;-85
2023/01/24 21:17:56;;;;;;;20.70;17.13;;;1.10;99.90;;;;;;4932645;29;20106;-86
2023/01/24 21:20:23;;;;;;;22.65;16.90;;;3.00;99.90;;;;;;4931004;29;20150;-87
2023/01/24 21:22:57;;;;;;;21.80;17.05;;;2.70;99.90;;;;;;4924171;29;20484;-87
2023/01/24 21:25:25;;;;;;;20.20;16.75;;;1.10;99.90;;;;;;4930108;29;20075;-87
2023/01/24 21:27:54;;;;;;;21.02;16.48;;;;;;;;;;4930419;29;20875;-87
2023/01/24 21:30:23;;;;;;;22.05;17.20;;;1.10;99.90;;;;;;4914666;29;20052;-87
2023/01/24 21:32:49;;;;;;;19.55;16.33;;;;;;;;;;4931227;29;20075;-87
2023/01/24 21:35:18;;;;;;;23.30;18.00;;;1.10;99.90;;;;;;4906168;29;20051;-87
2023/01/24 21:37:44;;;;;;;22.33;17.58;;;;;;;;;;4914824;29;20496;-87
2023/01/24 21:40:10;;;;;;;20.75;16.77;;;1.10;99.90;;;;;;4930562;29;20055;-88
2023/01/24 21:42:44;;;;;;;21.90;17.75;;;1.00;99.90;;;;;;4921058;29;20195;-87
2023/01/24 21:45:24;;;;;;;;;;;1.30;99.90;;;;;;4930625;29;20118;-86
